createdAt,value
2022-09-09T00:02:50.793Z,16.23
2022-09-09T00:07:57.582Z,20.98
2022-09-09T00:13:07.712Z,18.60
2022-09-09T00:18:19.947Z,18.70
2022-09-09T00:23:27.210Z,18.42
2022-09-09T00:28:32.141Z,19.60
2022-09-09T00:33:34.963Z,19.10
2022-09-09T00:38:44.626Z,17.80
2022-09-09T00:43:59.442Z,17.42
2022-09-09T00:49:12.025Z,16.10
2022-09-09T00:54:29.974Z,19.53
2022-09-09T00:59:46.597Z,16.98
2022-09-09T01:04:49.312Z,19.23
2022-09-09T01:09:59.105Z,22.13
2022-09-09T01:15:12.667Z,20.45
2022-09-09T01:20:20.129Z,22.17
2022-09-09T01:31:01.460Z,21.67
2022-09-09T01:36:08.569Z,27.70
2022-09-09T01:41:11.445Z,22.35
2022-09-09T01:46:15.935Z,20.37
2022-09-09T01:51:19.089Z,20.20
2022-09-09T01:56:36.490Z,20.88
2022-09-09T02:01:50.435Z,25.35
2022-09-09T02:06:57.932Z,26.17
2022-09-09T02:12:08.149Z,24.08
2022-09-09T02:17:15.746Z,24.83
2022-09-09T02:22:22.457Z,33.07
2022-09-09T02:27:25.671Z,30.63
2022-09-09T02:32:34.267Z,29.65
2022-09-09T02:37:40.388Z,36.17
2022-09-09T02:42:44.654Z,33.80
2022-09-09T02:47:56.017Z,27.85
2022-09-09T02:53:09.127Z,37.03
2022-09-09T02:58:14.230Z,29.10
2022-09-09T03:03:20.583Z,24.95
2022-09-09T03:08:23.556Z,23.33
2022-09-09T03:13:26.421Z,34.73
2022-09-09T03:18:30.594Z,34.13
2022-09-09T03:23:33.465Z,27.40
2022-09-09T03:28:36.574Z,22.90
2022-09-09T03:33:42.113Z,27.60
2022-09-09T03:38:44.978Z,31.92
2022-09-09T03:43:47.674Z,35.00
2022-09-09T03:48:53.110Z,28.33
2022-09-09T03:53:57.792Z,32.00
2022-09-09T03:59:00.483Z,34.97
2022-09-09T04:04:04.744Z,37.00
2022-09-09T04:09:07.456Z,41.42
2022-09-09T04:14:10.165Z,46.63
2022-09-09T04:19:15.442Z,54.87
2022-09-09T04:24:18.257Z,64.97
2022-09-09T04:29:20.961Z,57.83
2022-09-09T04:34:25.019Z,67.65
2022-09-09T04:39:27.772Z,50.27
2022-09-09T04:44:31.149Z,71.35
2022-09-09T04:49:35.223Z,80.35
2022-09-09T04:54:37.902Z,65.43
2022-09-09T04:59:41.318Z,75.60
2022-09-09T05:04:45.396Z,70.20
2022-09-09T05:09:50.264Z,58.20
2022-09-09T05:14:53.010Z,68.87
2022-09-09T05:19:57.859Z,66.60
2022-09-09T05:25:01.462Z,57.80
2022-09-09T05:30:05.523Z,65.20
2022-09-09T05:35:10.058Z,59.28
2022-09-09T05:40:13.609Z,54.35
2022-09-09T05:45:16.532Z,44.43
2022-09-09T05:50:20.595Z,52.45
2022-09-09T05:55:23.301Z,51.83
2022-09-09T06:00:25.998Z,52.57
2022-09-09T06:05:30.564Z,44.87
2022-09-09T06:10:33.317Z,47.38
2022-09-09T06:15:36.546Z,42.95
2022-09-09T06:20:40.612Z,45.43
2022-09-09T06:25:43.292Z,45.05
2022-09-09T06:30:46.503Z,38.70
2022-09-09T06:35:55.182Z,38.03
2022-09-09T06:40:59.941Z,42.97
2022-09-09T06:46:05.939Z,40.97
2022-09-09T06:51:13.729Z,37.37
2022-09-09T06:56:24.593Z,35.70
2022-09-09T07:01:29.850Z,38.53
2022-09-09T07:06:35.519Z,35.75
2022-09-09T07:11:42.189Z,34.80
2022-09-09T07:16:45.702Z,34.08
2022-09-09T07:21:50.284Z,39.50
2022-09-09T07:26:53.068Z,37.73
2022-09-09T07:31:55.855Z,37.40
2022-09-09T07:36:59.940Z,38.55
2022-09-09T07:42:02.649Z,36.10
2022-09-09T07:47:05.742Z,35.57
2022-09-09T07:52:09.838Z,32.17
2022-09-09T07:57:13.578Z,32.70
2022-09-09T08:02:16.363Z,31.30
2022-09-09T08:07:22.454Z,29.45
2022-09-09T08:12:25.323Z,32.80
2022-09-09T08:17:28.105Z,32.43
2022-09-09T08:22:32.174Z,31.20
2022-09-09T08:27:35.085Z,31.90
2022-09-09T08:32:39.852Z,25.37
2022-09-09T08:37:45.066Z,32.67
2022-09-09T08:42:51.575Z,27.17
2022-09-09T08:48:12.109Z,28.02
2022-09-09T08:53:20.659Z,24.87
2022-09-09T08:58:25.860Z,22.83
2022-09-09T09:03:37.656Z,24.42
2022-09-09T09:08:49.177Z,20.00
2022-09-09T09:13:57.551Z,22.40
2022-09-09T09:19:01.345Z,22.17
2022-09-09T09:24:10.227Z,19.03
2022-09-09T09:29:16.015Z,19.93
2022-09-09T09:34:18.994Z,17.33
2022-09-09T09:44:50.531Z,17.43
2022-09-09T09:49:54.608Z,17.63
2022-09-09T09:55:05.250Z,15.55
2022-09-09T10:00:17.715Z,13.53
2022-09-09T10:05:26.801Z,13.10
2022-09-09T10:10:47.423Z,12.57
2022-09-09T10:16:03.317Z,10.87
2022-09-09T10:21:21.717Z,10.37
2022-09-09T10:26:40.385Z,11.65
2022-09-09T10:31:57.677Z,11.65
2022-09-09T10:37:01.855Z,13.67
2022-09-09T10:42:09.948Z,14.13
2022-09-09T10:47:34.772Z,10.52
2022-09-09T10:52:48.923Z,11.60
2022-09-09T10:57:55.538Z,10.15
2022-09-09T11:02:59.636Z,8.82
2022-09-09T11:08:07.194Z,9.27
2022-09-09T11:13:18.451Z,9.10
2022-09-09T11:18:24.035Z,7.70
2022-09-09T11:23:41.673Z,7.95
2022-09-09T11:29:04.731Z,6.43
2022-09-09T11:34:22.286Z,6.95
2022-09-09T11:39:54.195Z,7.15
2022-09-09T11:44:58.463Z,6.77
2022-09-09T11:50:11.486Z,7.70
2022-09-09T11:55:28.080Z,6.47
2022-09-09T12:00:38.042Z,6.00
2022-09-09T12:05:44.596Z,6.47
2022-09-09T12:10:56.751Z,7.20
2022-09-09T12:16:03.290Z,6.53
2022-09-09T12:21:17.698Z,7.60
2022-09-09T12:26:31.938Z,6.18
2022-09-09T12:31:45.737Z,8.90
2022-09-09T12:36:55.673Z,6.37
2022-09-09T12:41:58.474Z,5.60
2022-09-09T12:47:05.534Z,7.38
2022-09-09T12:52:12.135Z,5.97
2022-09-09T12:57:15.953Z,6.20
2022-09-09T13:02:23.450Z,6.20
2022-09-09T13:07:27.363Z,7.22
2022-09-09T13:12:30.068Z,5.60
2022-09-09T13:17:34.367Z,7.03
2022-09-09T13:22:39.810Z,7.50
2022-09-09T13:27:44.269Z,5.67
2022-09-09T13:32:48.557Z,5.70
2022-09-09T13:37:51.396Z,6.93
2022-09-09T13:42:56.601Z,7.83
2022-09-09T13:48:11.310Z,6.33
2022-09-09T13:53:14.030Z,5.35
2022-09-09T13:58:19.178Z,7.22
2022-09-09T14:03:24.072Z,6.00
2022-09-09T14:08:29.761Z,4.80
2022-09-09T14:13:32.654Z,6.78
2022-09-09T14:18:36.737Z,8.67
2022-09-09T14:23:39.917Z,6.65
2022-09-09T14:28:54.824Z,7.68
2022-09-09T14:33:59.883Z,8.57
2022-09-09T14:39:02.847Z,5.43
2022-09-09T14:44:05.590Z,6.43
2022-09-09T14:49:11.259Z,5.85
2022-09-09T14:54:14.802Z,6.53
2022-09-09T14:59:17.512Z,7.22
2022-09-09T15:04:22.027Z,7.00
2022-09-09T15:09:24.922Z,6.30
2022-09-09T15:14:28.133Z,6.05
2022-09-09T15:19:33.387Z,6.45
2022-09-09T15:24:37.071Z,6.00
2022-09-09T15:29:40.356Z,6.40
2022-09-09T15:34:44.478Z,7.60
2022-09-09T15:39:47.533Z,6.65
2022-09-09T15:44:50.455Z,6.03
2022-09-09T15:49:54.522Z,6.28
2022-09-09T15:54:57.234Z,6.55
2022-09-09T16:00:00.601Z,6.17
2022-09-09T16:05:05.746Z,7.25
2022-09-09T16:10:09.349Z,6.75
2022-09-09T16:15:12.229Z,6.33
2022-09-09T16:20:16.700Z,5.83
2022-09-09T16:25:19.712Z,7.80
2022-09-09T16:30:22.825Z,3.72
2022-09-09T16:35:27.266Z,3.33
2022-09-09T16:40:29.977Z,3.78
2022-09-09T16:45:33.132Z,3.92
2022-09-09T16:50:37.191Z,2.80
2022-09-09T16:55:41.738Z,3.53
2022-09-09T17:00:44.463Z,3.65
2022-09-09T17:05:48.518Z,3.43
2022-09-09T17:10:51.307Z,3.00
2022-09-09T17:15:54.216Z,3.50
2022-09-09T17:20:58.333Z,4.47
2022-09-09T17:26:02.079Z,3.60
2022-09-09T17:31:07.145Z,4.00
2022-09-09T17:36:13.886Z,8.27
2022-09-09T17:41:19.469Z,8.10
2022-09-09T17:46:23.998Z,4.35
2022-09-09T17:51:30.695Z,5.13
2022-09-09T17:56:34.179Z,5.93
2022-09-09T18:01:39.103Z,4.17
2022-09-09T18:06:45.556Z,5.32
2022-09-09T18:11:50.115Z,4.72
2022-09-09T18:16:53.017Z,3.70
2022-09-09T18:22:00.283Z,4.40
2022-09-09T18:27:05.435Z,4.32
2022-09-09T18:32:08.276Z,5.07
2022-09-09T18:37:13.274Z,4.63
2022-09-09T18:42:15.997Z,3.75
2022-09-09T18:47:19.094Z,5.37
2022-09-09T18:52:23.314Z,4.47
2022-09-09T18:57:26.032Z,4.47
2022-09-09T19:02:28.798Z,6.28
2022-09-09T19:07:32.852Z,4.33
2022-09-09T19:12:35.599Z,8.48
2022-09-09T19:17:38.478Z,7.30
2022-09-09T19:22:42.540Z,6.23
2022-09-09T19:27:45.249Z,5.68
2022-09-09T19:32:53.552Z,5.65
2022-09-09T19:37:58.756Z,6.83
2022-09-09T19:43:01.805Z,6.23
2022-09-09T19:48:06.302Z,5.20
2022-09-09T19:53:10.491Z,4.72
2022-09-09T19:58:14.197Z,5.37
2022-09-09T20:03:19.460Z,6.75
2022-09-09T20:08:24.093Z,5.38
2022-09-09T20:13:26.845Z,4.40
2022-09-09T20:18:32.243Z,3.65
2022-09-09T20:23:37.262Z,4.40
2022-09-09T20:28:42.150Z,4.20
2022-09-09T20:33:45.605Z,4.73
2022-09-09T20:38:52.010Z,5.07
2022-09-09T20:43:56.864Z,6.68
2022-09-09T20:49:03.115Z,6.00
2022-09-09T20:54:10.934Z,10.07
2022-09-09T20:59:16.142Z,10.57
2022-09-09T21:04:20.686Z,7.17
2022-09-09T21:09:24.838Z,5.40
2022-09-09T21:14:28.334Z,6.05
2022-09-09T21:19:31.048Z,7.07
2022-09-09T21:24:35.104Z,4.50
2022-09-09T21:29:37.827Z,5.18
2022-09-09T21:34:42.402Z,5.80
2022-09-09T21:39:47.692Z,6.17
2022-09-09T21:44:50.434Z,5.78
2022-09-09T21:49:53.168Z,4.13
2022-09-09T21:54:57.940Z,8.30
2022-09-09T22:00:00.693Z,4.22
2022-09-09T22:05:03.417Z,5.53
2022-09-09T22:10:10.031Z,4.80
2022-09-09T22:15:12.945Z,6.33
2022-09-09T22:20:16.009Z,6.00
2022-09-09T22:25:20.167Z,5.18
2022-09-09T22:30:22.880Z,6.63
2022-09-09T22:35:25.862Z,6.15
2022-09-09T22:40:29.931Z,5.50
2022-09-09T22:45:33.127Z,6.23
2022-09-09T22:50:41.966Z,7.20
2022-09-09T22:55:58.159Z,5.30
2022-09-09T23:01:01.172Z,6.00
2022-09-09T23:06:05.095Z,8.03
2022-09-09T23:11:12.416Z,6.10
2022-09-09T23:16:16.735Z,7.22
2022-09-09T23:21:20.719Z,5.90
2022-09-09T23:26:25.654Z,5.95
2022-09-09T23:31:30.481Z,7.68
2022-09-09T23:36:33.445Z,5.83
2022-09-09T23:41:38.303Z,6.05
2022-09-09T23:46:41.173Z,7.53
2022-09-09T23:51:43.944Z,5.87
2022-09-09T23:56:48.417Z,8.73
